Time;durP1;ratioP1;P1;durP2;ratioP2;P2;SDS_P1;SDS_P2;PMS_P1;PMS_P2;Temp;Humidity;BMP_temperature;BMP_pressure;BME280_temperature;BME280_humidity;BME280_pressure;Samples;Min_cycle;Max_cycle;Signal;HPM_P1;HPM_P2
2022/10/12 00:01:40;;;;;;;9.70;3.30;;;;;;;;;;6180581;23;20056;-76
2022/10/12 00:04:06;;;;;;;6.70;2.70;;;;;;;;;;6183908;23;20034;-77
2022/10/12 00:06:33;;;;;;;9.90;3.08;;;;;;;;;;6182742;23;20564;-77
2022/10/12 00:08:59;;;;;;;12.57;3.33;;;;;;;;;;6181353;23;20501;-77
2022/10/12 00:11:26;;;;;;;8.02;2.85;;;;;;;;;;6181123;23;20088;-77
2022/10/12 00:13:53;;;;;;;6.13;2.60;;;;;;;;;;6182648;23;20018;-79
2022/10/12 00:16:20;;;;;;;9.82;3.15;;;;;;;;;;6186018;23;20022;-78
2022/10/12 00:18:53;;;;;;;6.65;2.75;;;;;;;;;;6182515;23;20096;-75
2022/10/12 00:21:20;;;;;;;8.60;2.70;;;;;;;;;;6183720;23;20434;-76
2022/10/12 00:23:46;;;;;;;6.15;2.90;;;;;;;;;;6182342;23;20084;-76
2022/10/12 00:26:18;;;;;;;8.82;2.63;;;;;;;;;;6183679;23;20088;-76
2022/10/12 00:28:44;;;;;;;9.50;3.03;;;;;;;;;;6181356;23;20049;-76
2022/10/12 00:31:12;;;;;;;11.57;2.75;;;;;;;;;;6181970;23;20084;-76
2022/10/12 00:33:39;;;;;;;9.02;2.85;;;;;;;;;;6183454;23;20022;-76
2022/10/12 00:36:22;;;;;;;7.63;2.95;;;;;;;;;;6183844;23;20025;-76
2022/10/12 00:38:49;;;;;;;7.57;3.30;;;;;;;;;;6182414;23;20052;-76
2022/10/12 00:41:16;;;;;;;6.15;2.92;;;;;;;;;;6181997;23;20446;-76
2022/10/12 00:43:44;;;;;;;7.07;2.70;;;;;;;;;;6181642;23;20025;-76
2022/10/12 00:46:15;;;;;;;6.63;2.90;;;;;;;;;;6183117;23;20483;-76
2022/10/12 00:48:42;;;;;;;6.72;3.00;;;;;;;;;;6182843;23;20104;-76
2022/10/12 00:51:10;;;;;;;10.80;3.00;;;;;;;;;;6183007;23;20040;-76
2022/10/12 00:53:41;;;;;;;7.38;3.20;;;;;;;;;;6183874;23;20030;-76
2022/10/12 00:56:11;;;;;;;11.45;3.70;;;;;;;;;;6182066;23;20029;-76
2022/10/12 00:58:38;;;;;;;6.63;2.85;;;;;;;;;;6181240;23;20029;-76
2022/10/12 01:01:04;;;;;;;7.38;3.00;;;;;;;;;;6183782;23;20029;-78
2022/10/12 01:03:31;;;;;;;9.35;3.15;;;;;;;;;;6183506;23;20030;-76
2022/10/12 01:05:58;;;;;;;5.65;2.83;;;;;;;;;;6181273;23;20082;-76
2022/10/12 01:08:24;;;;;;;7.72;3.30;;;;;;;;;;6162100;23;20025;-76
2022/10/12 01:10:51;;;;;;;9.25;3.30;;;;;;;;;;6127094;23;20033;-76
2022/10/12 01:13:17;;;;;;;8.30;2.90;;;;;;;;;;6127688;23;20033;-76
2022/10/12 01:15:57;;;;;;;9.50;3.13;;;;;;;;;;6154487;23;20411;-78
2022/10/12 01:18:28;;;;;;;6.18;2.88;;;;;;;;;;6130754;23;20034;-76
2022/10/12 01:20:57;;;;;;;6.78;3.35;;;;;;;;;;6153274;23;20043;-76
2022/10/12 01:23:44;;;;;;;6.68;2.88;;;;;;;;;;6127420;23;20026;-76
2022/10/12 01:26:29;;;;;;;10.90;3.25;;;;;;;;;;6153235;23;20030;-76
2022/10/12 01:29:21;;;;;;;6.47;3.05;;;;;;;;;;6127130;23;20030;-76
2022/10/12 01:31:50;;;;;;;7.50;3.17;;;;;;;;;;6126667;23;20037;-76
2022/10/12 01:34:20;;;;;;;6.72;3.38;;;;;;;;;;6153643;23;20029;-77
2022/10/12 01:36:53;;;;;;;8.13;3.30;;;;;;;;;;6129053;23;20455;-76
2022/10/12 01:39:49;;;;;;;6.65;3.17;;;;;;;;;;6127016;23;20365;-76
2022/10/12 01:42:19;;;;;;;5.57;2.65;;;;;;;;;;6108924;23;20054;-76
2022/10/12 01:44:45;;;;;;;7.30;2.97;;;;;;;;;;6126923;23;20034;-76
2022/10/12 01:47:11;;;;;;;9.35;3.17;;;;;;;;;;6125997;23;20041;-76
2022/10/12 01:49:38;;;;;;;11.00;2.90;;;;;;;;;;6125622;23;20486;-76
2022/10/12 01:52:04;;;;;;;6.15;2.85;;;;;;;;;;6127122;23;20026;-76
2022/10/12 01:54:41;;;;;;;6.82;3.22;;;;;;;;;;6154646;23;20018;-78
2022/10/12 01:57:13;;;;;;;6.07;2.92;;;;;;;;;;6129638;23;20033;-76
2022/10/12 01:59:57;;;;;;;14.65;3.53;;;;;;;;;;6127292;23;20026;-76
2022/10/12 02:02:33;;;;;;;6.72;3.03;;;;;;;;;;6127780;23;20026;-78
2022/10/12 02:05:04;;;;;;;6.22;2.97;;;;;;;;;;6129899;23;20029;-76
2022/10/12 02:07:30;;;;;;;5.28;2.70;;;;;;;;;;6141815;23;20033;-75
2022/10/12 02:09:57;;;;;;;6.30;2.72;;;;;;;;;;6186702;23;20033;-78
2022/10/12 02:12:25;;;;;;;8.88;3.20;;;;;;;;;;6187992;23;20029;-78
2022/10/12 02:14:53;;;;;;;6.57;3.13;;;;;;;;;;6189493;23;20033;-78
2022/10/12 02:17:21;;;;;;;6.57;3.03;;;;;;;;;;6188634;23;20029;-78
2022/10/12 02:19:51;;;;;;;9.88;3.25;;;;;;;;;;6181123;23;20034;-75
2022/10/12 02:22:17;;;;;;;8.18;2.90;;;;;;;;;;6181858;23;20030;-75
2022/10/12 02:24:46;;;;;;;7.55;3.35;;;;;;;;;;6188066;23;20025;-78
2022/10/12 02:27:13;;;;;;;9.13;3.28;;;;;;;;;;6188342;23;20025;-78
2022/10/12 02:29:41;;;;;;;11.23;3.40;;;;;;;;;;6190304;23;20438;-78
2022/10/12 02:32:13;;;;;;;7.22;3.25;;;;;;;;;;6191731;23;20435;-78
2022/10/12 02:34:43;;;;;;;7.13;3.30;;;;;;;;;;6190158;23;20029;-78
2022/10/12 02:37:28;;;;;;;5.93;3.33;;;;;;;;;;6183604;23;20553;-75
2022/10/12 02:40:00;;;;;;;6.95;3.60;;;;;;;;;;6188232;23;20032;-78
2022/10/12 02:42:32;;;;;;;7.35;3.25;;;;;;;;;;6189475;23;20912;-78
2022/10/12 02:45:19;;;;;;;9.57;3.28;;;;;;;;;;6187771;23;20025;-78
2022/10/12 02:47:46;;;;;;;6.80;2.85;;;;;;;;;;6189376;23;20034;-78
2022/10/12 02:50:14;;;;;;;8.18;2.60;;;;;;;;;;6188239;23;20036;-79
2022/10/12 02:52:40;;;;;;;6.13;2.80;;;;;;;;;;6182645;23;20037;-75
2022/10/12 02:55:07;;;;;;;5.43;2.50;;;;;;;;;;6182465;23;20029;-77
2022/10/12 02:57:33;;;;;;;5.55;2.53;;;;;;;;;;6187957;23;20505;-78
2022/10/12 02:59:59;;;;;;;5.40;2.40;;;;;;;;;;6187800;23;20033;-78
2022/10/12 03:02:25;;;;;;;5.97;2.75;;;;;;;;;;6190194;23;20011;-78
2022/10/12 03:04:52;;;;;;;5.45;2.40;;;;;;;;;;6188724;23;20034;-78
2022/10/12 03:07:18;;;;;;;7.38;2.53;;;;;;;;;;6189266;23;20034;-78
2022/10/12 03:09:44;;;;;;;5.38;2.70;;;;;;;;;;6189295;23;20037;-78
2022/10/12 03:12:10;;;;;;;8.40;2.70;;;;;;;;;;6189973;23;20025;-78
2022/10/12 03:14:37;;;;;;;6.45;2.60;;;;;;;;;;6189118;23;20016;-78
2022/10/12 03:17:03;;;;;;;14.48;3.22;;;;;;;;;;6191167;23;20025;-78
2022/10/12 03:19:30;;;;;;;8.13;2.97;;;;;;;;;;6188282;23;20104;-78
2022/10/12 03:21:56;;;;;;;9.40;3.30;;;;;;;;;;6190134;23;20750;-78
2022/10/12 03:24:22;;;;;;;7.55;3.53;;;;;;;;;;6188962;23;20026;-78
2022/10/12 03:26:49;;;;;;;8.55;2.95;;;;;;;;;;6188353;23;20033;-78
2022/10/12 03:29:15;;;;;;;5.82;2.78;;;;;;;;;;6189209;23;20030;-78
2022/10/12 03:31:41;;;;;;;7.82;3.20;;;;;;;;;;6189386;23;20032;-78
2022/10/12 03:34:08;;;;;;;11.95;3.15;;;;;;;;;;6191293;23;20017;-78
2022/10/12 03:36:34;;;;;;;9.40;2.90;;;;;;;;;;6190693;23;20085;-78
2022/10/12 03:39:00;;;;;;;7.90;3.15;;;;;;;;;;6191130;23;20026;-78
2022/10/12 03:41:26;;;;;;;5.85;3.20;;;;;;;;;;6182745;23;20194;-75
2022/10/12 03:43:53;;;;;;;8.38;3.13;;;;;;;;;;6186157;23;21392;-78
2022/10/12 03:46:19;;;;;;;11.80;2.97;;;;;;;;;;6188740;23;20024;-78
2022/10/12 03:48:45;;;;;;;10.07;3.22;;;;;;;;;;6188740;23;20021;-78
2022/10/12 03:51:11;;;;;;;6.63;2.90;;;;;;;;;;6189046;23;20029;-78
2022/10/12 03:53:38;;;;;;;11.65;3.55;;;;;;;;;;6188688;23;20036;-78
2022/10/12 03:56:10;;;;;;;7.03;2.88;;;;;;;;;;6186000;23;20103;-78
2022/10/12 03:58:36;;;;;;;7.10;2.90;;;;;;;;;;6189830;23;20025;-78
2022/10/12 04:01:03;;;;;;;6.65;3.10;;;;;;;;;;6189277;23;20025;-78
2022/10/12 04:03:29;;;;;;;8.13;3.10;;;;;;;;;;6191408;23;20831;-78
2022/10/12 04:05:56;;;;;;;9.68;3.60;;;;;;;;;;6190816;23;20029;-78
2022/10/12 04:08:22;;;;;;;7.05;3.33;;;;;;;;;;6190174;23;20022;-78
2022/10/12 04:10:51;;;;;;;10.32;3.40;;;;;;;;;;6189959;23;20776;-78
2022/10/12 04:13:18;;;;;;;14.43;3.33;;;;;;;;;;6189071;23;20608;-78
2022/10/12 04:15:44;;;;;;;11.32;3.30;;;;;;;;;;6188397;23;20025;-77
2022/10/12 04:18:10;;;;;;;7.82;3.05;;;;;;;;;;6184597;23;20026;-77
2022/10/12 04:20:37;;;;;;;7.57;3.53;;;;;;;;;;6185321;23;20044;-77
2022/10/12 04:23:03;;;;;;;8.02;3.40;;;;;;;;;;6182353;23;20025;-77
2022/10/12 04:25:30;;;;;;;9.60;3.20;;;;;;;;;;6182254;23;20029;-77
2022/10/12 04:27:56;;;;;;;8.23;3.20;;;;;;;;;;6182086;23;20034;-77
2022/10/12 04:30:22;;;;;;;8.70;3.20;;;;;;;;;;6186352;23;20498;-77
2022/10/12 04:32:49;;;;;;;7.85;2.95;;;;;;;;;;6184428;23;20017;-77
2022/10/12 04:35:15;;;;;;;7.15;3.28;;;;;;;;;;6183250;23;20029;-77
2022/10/12 04:37:41;;;;;;;8.35;4.13;;;;;;;;;;6183638;23;20026;-75
2022/10/12 04:40:08;;;;;;;8.02;3.33;;;;;;;;;;6183190;23;20822;-77
2022/10/12 04:42:34;;;;;;;8.20;3.58;;;;;;;;;;6183837;23;20029;-77
2022/10/12 04:45:00;;;;;;;12.63;3.78;;;;;;;;;;6183870;23;20110;-77
2022/10/12 04:47:26;;;;;;;9.45;3.90;;;;;;;;;;6182853;23;20034;-75
2022/10/12 04:49:53;;;;;;;8.05;3.40;;;;;;;;;;6186321;23;20028;-75
2022/10/12 04:52:19;;;;;;;8.82;3.60;;;;;;;;;;6186482;23;20483;-75
2022/10/12 04:54:46;;;;;;;9.90;3.78;;;;;;;;;;6182286;23;20017;-75
2022/10/12 04:57:12;;;;;;;7.93;4.43;;;;;;;;;;6183143;23;20025;-77
2022/10/12 04:59:38;;;;;;;11.13;3.70;;;;;;;;;;6182683;23;20038;-77
2022/10/12 05:02:05;;;;;;;9.68;3.70;;;;;;;;;;6184740;23;20029;-77
2022/10/12 05:04:31;;;;;;;9.20;3.50;;;;;;;;;;6183408;23;20101;-77
2022/10/12 05:06:57;;;;;;;8.82;3.60;;;;;;;;;;6179898;23;20102;-77
2022/10/12 05:09:23;;;;;;;11.30;3.53;;;;;;;;;;6128429;23;20022;-76
2022/10/12 05:11:53;;;;;;;10.02;4.05;;;;;;;;;;6128140;23;20026;-77
2022/10/12 05:14:19;;;;;;;8.57;3.78;;;;;;;;;;6154833;23;20030;-77
2022/10/12 05:16:45;;;;;;;11.38;4.22;;;;;;;;;;6127848;23;20030;-77
2022/10/12 05:19:11;;;;;;;9.57;4.25;;;;;;;;;;6127414;23;20040;-77
2022/10/12 05:21:39;;;;;;;7.85;3.80;;;;;;;;;;6153216;23;20903;-77
2022/10/12 05:24:06;;;;;;;10.48;4.13;;;;;;;;;;6129087;23;20030;-77
2022/10/12 05:26:32;;;;;;;9.55;4.53;;;;;;;;;;6129250;23;20040;-77
2022/10/12 05:28:58;;;;;;;10.88;4.40;;;;;;;;;;6129049;23;20018;-77
2022/10/12 05:31:25;;;;;;;9.10;4.40;;;;;;;;;;6130294;23;20088;-77
2022/10/12 05:33:54;;;;;;;9.65;4.60;;;;;;;;;;6129634;23;20077;-77
2022/10/12 05:36:20;;;;;;;11.25;4.13;;;;;;;;;;6156295;23;20026;-77
2022/10/12 05:38:47;;;;;;;11.20;4.40;;;;;;;;;;6130401;23;21037;-77
2022/10/12 05:41:14;;;;;;;12.65;3.88;;;;;;;;;;6128834;23;20018;-77
2022/10/12 05:43:40;;;;;;;12.25;4.13;;;;;;;;;;6128343;23;20030;-77
2022/10/12 05:46:06;;;;;;;9.93;4.13;;;;;;;;;;6152482;23;20030;-76
2022/10/12 05:48:38;;;;;;;12.02;5.25;;;;;;;;;;6128088;23;20081;-77
2022/10/12 05:51:05;;;;;;;12.88;5.38;;;;;;;;;;6125621;23;20030;-76
2022/10/12 05:53:31;;;;;;;9.02;4.20;;;;;;;;;;6126785;23;20030;-77
2022/10/12 05:55:58;;;;;;;9.38;4.25;;;;;;;;;;6126292;23;20026;-77
2022/10/12 05:58:25;;;;;;;9.23;4.07;;;;;;;;;;6125641;23;20034;-76
2022/10/12 06:00:51;;;;;;;10.43;3.90;;;;;;;;;;6126723;23;20479;-77
2022/10/12 06:03:18;;;;;;;8.45;4.13;;;;;;;;;;6127845;23;20026;-77
2022/10/12 06:05:48;;;;;;;10.63;4.22;;;;;;;;;;6130755;23;20030;-77
2022/10/12 06:08:14;;;;;;;9.02;4.65;;;;;;;;;;6157944;23;20030;-77
2022/10/12 06:10:45;;;;;;;8.63;4.10;;;;;;;;;;6130035;23;20503;-77
2022/10/12 06:13:11;;;;;;;;;;;;;;;;;;6129785;23;20030;-77
2022/10/12 06:15:37;;;;;;;9.93;5.65;;;;;;;;;;6153001;23;43148;-77
2022/10/12 06:18:04;;;;;;;9.65;4.53;;;;;;;;;;6128376;23;20030;-77
2022/10/12 06:20:30;;;;;;;9.48;4.00;;;;;;;;;;6127910;23;20026;-77
2022/10/12 06:22:56;;;;;;;8.82;4.20;;;;;;;;;;6153156;23;20033;-77
2022/10/12 06:25:22;;;;;;;7.25;3.92;;;;;;;;;;6153386;23;20471;-77
2022/10/12 06:27:48;;;;;;;8.25;3.63;;;;;;;;;;6152832;23;20558;-77
2022/10/12 06:30:15;;;;;;;9.95;3.75;;;;;;;;;;6153438;23;20033;-77
2022/10/12 06:32:41;;;;;;;9.05;3.58;;;;;;;;;;6127037;23;20034;-77
2022/10/12 06:35:08;;;;;;;9.40;3.97;;;;;;;;;;6129531;23;20018;-78
2022/10/12 06:37:34;;;;;;;13.90;3.65;;;;;;;;;;6129514;23;20026;-78
2022/10/12 06:40:16;;;;;;;11.98;3.90;;;;;;;;;;6132962;23;20072;-78
2022/10/12 06:42:42;;;;;;;8.65;3.70;;;;;;;;;;6155108;23;20014;-77
2022/10/12 06:45:08;;;;;;;11.18;4.45;;;;;;;;;;6155117;23;20017;-78
2022/10/12 06:47:35;;;;;;;6.53;3.47;;;;;;;;;;6130065;23;20046;-78
2022/10/12 06:50:01;;;;;;;8.90;3.97;;;;;;;;;;6129535;23;20081;-78
2022/10/12 06:52:27;;;;;;;10.32;4.00;;;;;;;;;;6129475;23;20395;-77
2022/10/12 06:54:54;;;;;;;12.82;4.13;;;;;;;;;;6155771;23;20081;-77
2022/10/12 06:57:20;;;;;;;11.93;4.22;;;;;;;;;;6128699;23;20033;-77
2022/10/12 06:59:46;;;;;;;9.48;4.18;;;;;;;;;;6155616;23;20030;-78
2022/10/12 07:02:12;;;;;;;9.80;4.18;;;;;;;;;;6156261;23;20034;-77
2022/10/12 07:04:39;;;;;;;10.40;3.85;;;;;;;;;;6130535;23;20037;-78
2022/10/12 07:07:05;;;;;;;9.40;4.03;;;;;;;;;;6130914;23;20082;-78
2022/10/12 07:09:31;;;;;;;8.57;4.25;;;;;;;;;;6130649;23;20026;-78
2022/10/12 07:11:57;;;;;;;14.98;6.30;;;;;;;;;;6130350;23;20431;-78
2022/10/12 07:14:24;;;;;;;9.35;5.20;;;;;;;;;;6129833;23;20120;-78
2022/10/12 07:16:50;;;;;;;9.82;4.53;;;;;;;;;;6130436;23;20033;-78
2022/10/12 07:19:20;;;;;;;9.90;4.97;;;;;;;;;;6131025;23;20062;-77
2022/10/12 07:21:47;;;;;;;11.15;4.68;;;;;;;;;;6158003;23;20034;-78
2022/10/12 07:24:13;;;;;;;12.38;4.60;;;;;;;;;;6155917;23;20514;-78
2022/10/12 07:26:39;;;;;;;9.73;4.65;;;;;;;;;;6156574;23;20091;-78
2022/10/12 07:29:06;;;;;;;14.98;4.57;;;;;;;;;;6130864;23;20063;-78
2022/10/12 07:31:32;;;;;;;13.40;4.70;;;;;;;;;;6130327;23;20088;-78
2022/10/12 07:33:58;;;;;;;9.20;4.90;;;;;;;;;;6129812;23;20030;-78
2022/10/12 07:36:25;;;;;;;12.38;5.10;;;;;;;;;;6130873;23;21268;-78
2022/10/12 07:39:11;;;;;;;10.88;5.00;;;;;;;;;;6135598;23;20085;-78
2022/10/12 07:41:37;;;;;;;9.52;5.05;;;;;;;;;;6130892;23;20029;-78
2022/10/12 07:44:04;;;;;;;10.45;4.93;;;;;;;;;;6156700;23;20030;-78
2022/10/12 07:46:30;;;;;;;10.98;5.65;;;;;;;;;;6129198;23;20081;-78
2022/10/12 07:48:56;;;;;;;18.95;5.95;;;;;;;;;;6130524;23;20029;-78
2022/10/12 07:51:23;;;;;;;13.13;5.78;;;;;;;;;;6130701;23;20034;-78
2022/10/12 07:53:49;;;;;;;12.82;6.80;;;;;;;;;;6157113;23;20379;-78
2022/10/12 07:56:15;;;;;;;14.55;6.07;;;;;;;;;;6130126;23;20030;-78
2022/10/12 07:58:46;;;;;;;17.00;7.30;;;;;;;;;;6156317;23;20088;-78
2022/10/12 08:01:13;;;;;;;12.82;7.13;;;;;;;;;;6156305;23;20033;-78
2022/10/12 08:03:39;;;;;;;14.52;6.82;;;;;;;;;;6130823;23;20030;-78
2022/10/12 08:06:13;;;;;;;17.80;7.97;;;;;;;;;;6157344;23;20443;-78
2022/10/12 08:08:39;;;;;;;15.63;7.63;;;;;;;;;;6174391;23;20025;-78
2022/10/12 08:11:06;;;;;;;18.13;7.65;;;;;;;;;;6185264;23;20100;-78
2022/10/12 08:13:33;;;;;;;16.77;7.47;;;;;;;;;;6185426;23;20037;-78
2022/10/12 08:16:00;;;;;;;18.85;8.02;;;;;;;;;;6186231;23;20040;-78
2022/10/12 08:18:28;;;;;;;15.95;7.57;;;;;;;;;;6183840;23;20554;-78
2022/10/12 08:20:54;;;;;;;13.38;8.07;;;;;;;;;;6185249;23;20030;-78
2022/10/12 08:23:20;;;;;;;17.83;8.05;;;;;;;;;;6185737;23;20085;-78
2022/10/12 08:25:51;;;;;;;19.95;8.98;;;;;;;;;;6186871;23;20017;-78
2022/10/12 08:28:17;;;;;;;17.70;7.80;;;;;;;;;;6185755;23;20026;-78
2022/10/12 08:30:43;;;;;;;16.65;7.47;;;;;;;;;;6186641;23;20041;-78
2022/10/12 08:33:10;;;;;;;12.23;7.00;;;;;;;;;;6185639;23;20029;-79
2022/10/12 08:35:37;;;;;;;15.75;7.03;;;;;;;;;;6186024;23;20040;-78
2022/10/12 08:38:03;;;;;;;12.15;6.28;;;;;;;;;;6185896;23;20029;-78
2022/10/12 08:40:31;;;;;;;15.38;6.88;;;;;;;;;;6186938;23;20017;-78
2022/10/12 08:43:00;;;;;;;13.50;6.72;;;;;;;;;;6187026;23;20033;-78
2022/10/12 08:45:32;;;;;;;19.15;6.90;;;;;;;;;;6186327;23;20029;-78
2022/10/12 08:48:00;;;;;;;19.65;7.97;;;;;;;;;;6187010;23;20491;-78
2022/10/12 08:50:34;;;;;;;16.17;8.02;;;;;;;;;;6186295;23;20554;-79
2022/10/12 08:53:07;;;;;;;13.85;7.25;;;;;;;;;;6185952;23;20032;-78
2022/10/12 08:55:38;;;;;;;19.75;7.88;;;;;;;;;;6186176;23;20526;-79
2022/10/12 08:58:10;;;;;;;20.92;8.45;;;;;;;;;;6185025;23;20033;-78
2022/10/12 09:00:37;;;;;;;20.13;8.55;;;;;;;;;;6185283;23;20088;-78
2022/10/12 09:03:17;;;;;;;19.00;8.82;;;;;;;;;;6187322;23;20459;-78
2022/10/12 09:06:10;;;;;;;19.63;8.43;;;;;;;;;;6185584;23;20472;-79
2022/10/12 09:08:39;;;;;;;23.73;8.45;;;;;;;;;;6157606;23;20104;-78
2022/10/12 09:11:06;;;;;;;16.17;8.20;;;;;;;;;;6130765;23;20033;-78
2022/10/12 09:13:46;;;;;;;19.80;8.90;;;;;;;;;;6131855;23;20025;-78
2022/10/12 09:16:19;;;;;;;21.73;8.32;;;;;;;;;;6131959;23;20025;-78
2022/10/12 09:18:47;;;;;;;18.50;8.32;;;;;;;;;;6156126;23;20034;-78
2022/10/12 09:21:17;;;;;;;15.48;8.00;;;;;;;;;;6130071;23;20037;-78
2022/10/12 09:23:44;;;;;;;18.85;8.73;;;;;;;;;;6127860;23;20033;-78
2022/10/12 09:26:13;;;;;;;16.35;8.57;;;;;;;;;;6155615;23;20041;-79
2022/10/12 09:28:42;;;;;;;15.07;7.85;;;;;;;;;;6129321;23;20026;-79
2022/10/12 09:31:08;;;;;;;21.38;7.85;;;;;;;;;;6156372;23;20037;-79
2022/10/12 09:33:40;;;;;;;20.85;8.40;;;;;;;;;;6156911;23;20030;-79
2022/10/12 09:36:09;;;;;;;19.88;8.90;;;;;;;;;;6155240;23;20418;-78
2022/10/12 09:38:37;;;;;;;20.42;9.82;;;;;;;;;;6155628;23;20025;-78
2022/10/12 09:41:03;;;;;;;17.30;8.45;;;;;;;;;;6156835;23;20022;-78
2022/10/12 09:43:30;;;;;;;22.73;8.10;;;;;;;;;;6130038;23;20010;-78
2022/10/12 09:45:59;;;;;;;23.27;10.95;;;;;;;;;;6129214;23;20037;-78
2022/10/12 09:48:26;;;;;;;18.98;8.80;;;;;;;;;;6129345;23;20025;-78
2022/10/12 09:50:56;;;;;;;15.10;7.93;;;;;;;;;;6157804;23;20026;-79
2022/10/12 09:53:23;;;;;;;;;;;;;;;;;;6131343;23;20037;-79
2022/10/12 09:55:53;;;;;;;18.17;8.55;;;;;;;;;;6129795;23;45554;-79
2022/10/12 09:58:20;;;;;;;20.60;8.80;;;;;;;;;;6128071;23;20083;-79
2022/10/12 10:01:06;;;;;;;16.15;7.57;;;;;;;;;;6128729;23;20036;-79
2022/10/12 10:03:33;;;;;;;16.38;7.40;;;;;;;;;;6130491;23;20040;-79
2022/10/12 10:06:03;;;;;;;18.15;7.93;;;;;;;;;;6156639;23;20026;-79
2022/10/12 10:08:40;;;;;;;18.23;7.57;;;;;;;;;;6156499;23;20053;-79
2022/10/12 10:11:11;;;;;;;16.60;8.15;;;;;;;;;;6127815;23;20084;-79
2022/10/12 10:13:43;;;;;;;19.27;7.75;;;;;;;;;;6154688;23;20065;-79
2022/10/12 10:16:10;;;;;;;16.92;7.82;;;;;;;;;;6157190;23;20942;-79
2022/10/12 10:18:47;;;;;;;18.85;7.68;;;;;;;;;;6129614;23;20033;-79
2022/10/12 10:21:15;;;;;;;13.38;7.00;;;;;;;;;;6127755;23;20505;-77
2022/10/12 10:23:43;;;;;;;16.55;6.80;;;;;;;;;;6126679;23;20025;-75
2022/10/12 10:26:14;;;;;;;17.50;7.25;;;;;;;;;;6151720;23;20063;-77
2022/10/12 10:28:40;;;;;;;;;;;;;;;;;;6153670;23;20033;-77
2022/10/12 10:31:28;;;;;;;17.98;5.80;;;;;;;;;;6151928;23;47638;-76
2022/10/12 10:34:11;;;;;;;15.65;6.18;;;;;;;;;;6126234;23;20034;-76
2022/10/12 10:36:49;;;;;;;17.38;6.15;;;;;;;;;;6152660;23;20441;-76
2022/10/12 10:39:18;;;;;;;11.52;4.65;;;;;;;;;;6152944;23;20030;-77
2022/10/12 10:41:44;;;;;;;8.98;3.58;;;;;;;;;;6127293;23;20817;-76
2022/10/12 10:44:22;;;;;;;14.95;4.00;;;;;;;;;;6152438;23;20061;-76
2022/10/12 10:46:49;;;;;;;15.13;3.92;;;;;;;;;;6126792;23;20352;-76
2022/10/12 10:49:28;;;;;;;12.75;3.47;;;;;;;;;;6153022;23;20073;-76
2022/10/12 10:51:56;;;;;;;12.77;4.22;;;;;;;;;;6126873;23;20029;-76
2022/10/12 10:54:23;;;;;;;17.23;4.20;;;;;;;;;;6151358;23;20038;-76
2022/10/12 10:56:51;;;;;;;13.38;4.13;;;;;;;;;;6151792;23;20147;-76
2022/10/12 10:59:26;;;;;;;12.57;4.53;;;;;;;;;;6152746;23;20476;-76
2022/10/12 11:01:59;;;;;;;16.17;4.55;;;;;;;;;;6152582;23;20026;-76
2022/10/12 11:04:25;;;;;;;15.23;5.22;;;;;;;;;;6153378;23;20106;-76
2022/10/12 11:06:54;;;;;;;15.02;5.25;;;;;;;;;;6151413;23;20041;-76
2022/10/12 11:09:24;;;;;;;16.83;5.18;;;;;;;;;;6152268;23;20467;-76
2022/10/12 11:11:54;;;;;;;12.43;5.28;;;;;;;;;;6152370;23;20026;-76
2022/10/12 11:14:24;;;;;;;13.05;5.30;;;;;;;;;;6152556;23;20492;-76
2022/10/12 11:16:52;;;;;;;17.02;5.53;;;;;;;;;;6126219;23;20026;-76
2022/10/12 11:19:37;;;;;;;13.00;5.03;;;;;;;;;;6151333;23;20026;-76
2022/10/12 11:22:22;;;;;;;15.02;5.25;;;;;;;;;;6152515;23;20030;-76
2022/10/12 11:24:55;;;;;;;13.23;4.75;;;;;;;;;;6125517;23;20463;-76
2022/10/12 11:27:38;;;;;;;16.15;5.55;;;;;;;;;;6153184;23;20037;-76
2022/10/12 11:30:11;;;;;;;15.48;5.80;;;;;;;;;;6151461;23;20037;-77
2022/10/12 11:32:40;;;;;;;29.38;13.10;;;;;;;;;;6151194;23;20037;-75
2022/10/12 11:35:12;;;;;;;11.82;4.88;;;;;;;;;;6125399;23;20053;-76
2022/10/12 11:37:41;;;;;;;18.52;7.45;;;;;;;;;;6153671;23;20030;-76
2022/10/12 11:40:15;;;;;;;17.38;4.35;;;;;;;;;;6126711;23;20615;-76
2022/10/12 11:42:41;;;;;;;9.63;3.50;;;;;;;;;;6128246;23;20498;-76
2022/10/12 11:45:21;;;;;;;11.88;3.70;;;;;;;;;;6153790;23;20105;-75
2022/10/12 11:47:49;;;;;;;9.55;2.97;;;;;;;;;;6128467;23;20026;-75
2022/10/12 11:50:18;;;;;;;14.90;4.43;;;;;;;;;;6127295;23;20471;-76
2022/10/12 11:52:47;;;;;;;11.55;4.10;;;;;;;;;;6153068;23;20037;-76
2022/10/12 11:55:22;;;;;;;13.10;4.70;;;;;;;;;;6151899;23;20037;-75
2022/10/12 11:57:49;;;;;;;14.38;4.35;;;;;;;;;;6153196;23;20482;-75
2022/10/12 12:00:18;;;;;;;12.65;4.20;;;;;;;;;;6153905;23;20029;-76
2022/10/12 12:02:47;;;;;;;11.98;4.07;;;;;;;;;;6127702;23;20034;-75
2022/10/12 12:05:14;;;;;;;11.68;5.05;;;;;;;;;;6124804;23;20411;-76
2022/10/12 12:07:53;;;;;;;11.20;4.95;;;;;;;;;;6144413;23;20030;-75
2022/10/12 12:10:26;;;;;;;11.65;4.70;;;;;;;;;;6181938;23;20072;-77
2022/10/12 12:13:06;;;;;;;13.45;4.75;;;;;;;;;;6182870;23;20021;-77
2022/10/12 12:15:36;;;;;;;10.82;4.93;;;;;;;;;;6182485;23;20561;-75
2022/10/12 12:18:03;;;;;;;12.63;6.05;;;;;;;;;;6182829;23;20030;-75
2022/10/12 12:20:41;;;;;;;12.43;5.57;;;;;;;;;;6182537;23;20029;-77
2022/10/12 12:23:21;;;;;;;12.95;4.93;;;;;;;;;;6182440;23;20451;-75
2022/10/12 12:26:02;;;;;;;13.30;5.07;;;;;;;;;;6179686;23;20048;-75
2022/10/12 12:28:30;;;;;;;12.02;4.95;;;;;;;;;;6183200;23;20055;-75
2022/10/12 12:30:58;;;;;;;12.93;4.90;;;;;;;;;;6182593;23;20471;-76
2022/10/12 12:33:34;;;;;;;13.85;5.40;;;;;;;;;;6182583;23;20029;-75
2022/10/12 12:36:27;;;;;;;11.40;5.63;;;;;;;;;;6182331;23;20029;-76
2022/10/12 12:38:53;;;;;;;16.08;6.22;;;;;;;;;;6183357;23;20029;-75
2022/10/12 12:41:21;;;;;;;15.60;5.97;;;;;;;;;;6182537;23;20030;-75
2022/10/12 12:43:52;;;;;;;11.88;6.65;;;;;;;;;;6181228;23;20036;-75
2022/10/12 12:46:19;;;;;;;20.90;7.43;;;;;;;;;;6182722;23;20032;-75
2022/10/12 12:48:45;;;;;;;14.00;8.05;;;;;;;;;;6182946;23;20029;-75
2022/10/12 12:51:17;;;;;;;21.42;8.55;;;;;;;;;;6180755;23;20030;-75
2022/10/12 12:53:44;;;;;;;18.15;8.48;;;;;;;;;;6182922;23;20035;-75
2022/10/12 12:56:10;;;;;;;19.92;9.05;;;;;;;;;;6182940;23;20029;-75
2022/10/12 12:58:57;;;;;;;16.73;8.75;;;;;;;;;;6180865;23;20033;-75
2022/10/12 13:01:23;;;;;;;14.40;7.75;;;;;;;;;;6181407;23;20450;-75
2022/10/12 13:04:04;;;;;;;22.85;8.90;;;;;;;;;;6182011;23;20036;-76
2022/10/12 13:06:40;;;;;;;16.40;8.65;;;;;;;;;;6182115;23;20026;-75
2022/10/12 13:09:09;;;;;;;20.67;9.00;;;;;;;;;;6181768;23;20033;-75
2022/10/12 13:12:01;;;;;;;16.67;8.40;;;;;;;;;;6181799;23;20040;-75
2022/10/12 13:14:47;;;;;;;15.57;8.88;;;;;;;;;;6182468;23;20033;-76
2022/10/12 13:17:19;;;;;;;20.23;9.65;;;;;;;;;;6185006;23;20033;-76
2022/10/12 13:20:15;;;;;;;20.45;9.65;;;;;;;;;;6181986;23;20029;-77
2022/10/12 13:22:44;;;;;;;22.00;9.65;;;;;;;;;;6182036;23;20486;-77
2022/10/12 13:25:13;;;;;;;20.38;10.00;;;;;;;;;;6184157;23;20426;-77
2022/10/12 13:27:40;;;;;;;20.37;9.70;;;;;;;;;;6184644;23;20030;-77
2022/10/12 13:30:11;;;;;;;20.02;10.20;;;;;;;;;;6183763;23;20021;-77
2022/10/12 13:32:46;;;;;;;22.17;10.20;;;;;;;;;;6186288;23;20037;-77
2022/10/12 13:35:36;;;;;;;23.83;11.52;;;;;;;;;;6185779;23;20044;-77
2022/10/12 13:38:22;;;;;;;20.83;10.93;;;;;;;;;;6169230;23;20443;-78
2022/10/12 13:41:09;;;;;;;21.48;11.18;;;;;;;;;;6183352;23;20064;-77
2022/10/12 13:43:44;;;;;;;22.08;11.48;;;;;;;;;;6184633;23;20022;-77
2022/10/12 13:46:33;;;;;;;20.92;10.48;;;;;;;;;;6183743;23;20014;-77
2022/10/12 13:49:00;;;;;;;20.08;10.00;;;;;;;;;;6185044;23;20032;-77
2022/10/12 13:51:27;;;;;;;20.55;10.55;;;;;;;;;;6187027;23;20010;-77
2022/10/12 13:53:54;;;;;;;19.92;10.93;;;;;;;;;;6185541;23;20017;-77
2022/10/12 13:56:22;;;;;;;23.73;10.20;;;;;;;;;;6185510;23;20034;-78
2022/10/12 13:58:50;;;;;;;23.77;10.43;;;;;;;;;;6181665;23;20025;-77
2022/10/12 14:01:16;;;;;;;21.17;9.57;;;;;;;;;;6185683;23;20029;-78
2022/10/12 14:03:43;;;;;;;22.17;10.60;;;;;;;;;;6186073;23;20700;-78
2022/10/12 14:06:39;;;;;;;23.00;10.38;;;;;;;;;;6185290;23;21206;-78
2022/10/12 14:09:17;;;;;;;16.80;9.20;;;;;;;;;;6160978;23;20489;-77
2022/10/12 14:11:44;;;;;;;19.05;9.65;;;;;;;;;;6185807;23;20017;-78
2022/10/12 14:14:16;;;;;;;20.33;10.48;;;;;;;;;;6188241;23;20510;-78
2022/10/12 14:16:42;;;;;;;21.27;10.07;;;;;;;;;;6189193;23;20037;-77
2022/10/12 14:19:57;;;;;;;20.23;8.90;;;;;;;;;;6185086;23;20554;-78
2022/10/12 14:22:25;;;;;;;19.48;8.50;;;;;;;;;;6134554;23;20030;-78
2022/10/12 14:24:55;;;;;;;18.35;8.00;;;;;;;;;;6181697;23;20080;-78
2022/10/12 14:27:23;;;;;;;18.63;7.53;;;;;;;;;;6182568;23;20026;-78
2022/10/12 14:29:52;;;;;;;16.40;7.93;;;;;;;;;;6181764;23;20025;-78
2022/10/12 14:32:22;;;;;;;15.88;6.75;;;;;;;;;;6184011;23;20025;-78
2022/10/12 14:34:49;;;;;;;17.48;7.00;;;;;;;;;;6181800;23;20030;-78
2022/10/12 14:37:15;;;;;;;16.98;7.03;;;;;;;;;;6183957;23;20069;-78
2022/10/12 14:39:42;;;;;;;15.93;6.30;;;;;;;;;;6180378;23;20478;-77
2022/10/12 14:42:25;;;;;;;16.60;6.70;;;;;;;;;;6182742;23;20029;-77
2022/10/12 14:44:52;;;;;;;16.17;6.25;;;;;;;;;;6183011;23;20029;-77
2022/10/12 14:47:20;;;;;;;16.90;6.05;;;;;;;;;;6181428;23;20025;-76
2022/10/12 14:49:47;;;;;;;18.00;5.93;;;;;;;;;;6181261;23;21136;-76
2022/10/12 14:52:20;;;;;;;18.15;6.07;;;;;;;;;;6180746;23;20029;-77